Time;durP1;ratioP1;P1;durP2;ratioP2;P2;SDS_P1;SDS_P2;PMS_P1;PMS_P2;Temp;Humidity;BMP_temperature;BMP_pressure;BME280_temperature;BME280_humidity;BME280_pressure;Samples;Min_cycle;Max_cycle;Signal;HPM_P1;HPM_P2
2023/12/04 00:01:56;;;;;;;28.05;14.18;;;-5.30;99.90;;;;;;5050601;28;20749;-56
2023/12/04 00:04:22;;;;;;;21.55;14.80;;;-5.30;99.90;;;;;;5050975;28;20217;-53
2023/12/04 00:06:51;;;;;;;17.83;14.02;;;-5.30;99.90;;;;;;5050950;28;20344;-57
2023/12/04 00:09:17;;;;;;;29.67;17.30;;;-5.30;99.90;;;;;;5051643;28;20297;-57
2023/12/04 00:11:44;;;;;;;25.40;17.20;;;-5.30;99.90;;;;;;5050116;28;20210;-57
2023/12/04 00:14:11;;;;;;;21.33;14.35;;;-5.30;99.90;;;;;;5051000;28;20203;-57
2023/12/04 00:16:38;;;;;;;18.15;13.25;;;-5.30;99.90;;;;;;5051244;28;20230;-55
2023/12/04 00:19:05;;;;;;;24.52;15.77;;;-5.30;99.90;;;;;;5050931;28;20202;-56
2023/12/04 00:21:32;;;;;;;22.77;15.38;;;-5.20;99.90;;;;;;5052117;28;20206;-56
2023/12/04 00:24:00;;;;;;;17.45;13.40;;;-5.20;99.90;;;;;;5054347;28;20209;-54
2023/12/04 00:26:27;;;;;;;24.88;15.90;;;-5.20;99.90;;;;;;5053595;28;20815;-54
2023/12/04 00:28:54;;;;;;;24.70;16.95;;;-5.20;99.90;;;;;;5052264;28;20301;-55
2023/12/04 00:31:21;;;;;;;24.55;14.85;;;-5.20;99.90;;;;;;5052699;28;20274;-58
2023/12/04 00:33:48;;;;;;;24.40;16.60;;;-5.20;99.90;;;;;;5054621;28;20207;-55
2023/12/04 00:36:14;;;;;;;23.27;16.23;;;-5.20;99.90;;;;;;5054530;28;20226;-54
2023/12/04 00:38:41;;;;;;;22.98;15.07;;;-5.20;99.90;;;;;;5054835;28;20600;-54
2023/12/04 00:41:09;;;;;;;19.17;13.43;;;-5.20;99.90;;;;;;5054860;28;20213;-53
2023/12/04 00:43:36;;;;;;;25.58;15.35;;;-5.20;99.90;;;;;;5055015;28;20676;-56
2023/12/04 00:46:03;;;;;;;19.15;15.13;;;-5.20;99.90;;;;;;5054758;28;20218;-55
2023/12/04 00:48:30;;;;;;;24.08;18.58;;;-5.20;99.90;;;;;;5054298;28;20588;-58
2023/12/04 00:50:58;;;;;;;22.25;15.75;;;-5.20;99.90;;;;;;5054797;28;20210;-56
2023/12/04 00:53:25;;;;;;;24.70;13.88;;;-5.10;99.90;;;;;;5054253;28;20728;-57
2023/12/04 00:55:52;;;;;;;23.48;16.95;;;-5.10;99.90;;;;;;5053038;28;20234;-59
2023/12/04 00:58:20;;;;;;;28.80;16.42;;;-5.20;99.90;;;;;;5054387;28;20206;-54
2023/12/04 01:00:48;;;;;;;20.90;14.45;;;-5.10;99.90;;;;;;5054750;28;20285;-55
2023/12/04 01:03:15;;;;;;;24.95;14.85;;;-5.10;99.90;;;;;;5054370;28;20234;-54
2023/12/04 01:05:42;;;;;;;26.67;17.48;;;-5.10;99.90;;;;;;5054408;28;20214;-56
2023/12/04 01:08:09;;;;;;;23.10;15.63;;;-5.10;99.90;;;;;;5054292;28;20212;-57
2023/12/04 01:10:36;;;;;;;17.45;13.77;;;-5.10;99.90;;;;;;5056332;28;20857;-55
2023/12/04 01:13:02;;;;;;;21.42;15.30;;;-5.10;99.90;;;;;;5056455;28;20209;-58
2023/12/04 01:15:31;;;;;;;22.92;16.38;;;-5.00;99.90;;;;;;5054640;28;20207;-58
2023/12/04 01:18:00;;;;;;;22.45;14.88;;;-5.10;99.90;;;;;;5054570;28;20217;-55
2023/12/04 01:20:27;;;;;;;20.67;14.73;;;-5.00;99.90;;;;;;5054751;28;20587;-58
2023/12/04 01:22:53;;;;;;;25.05;16.90;;;-5.00;99.90;;;;;;5054212;28;20210;-56
2023/12/04 01:25:20;;;;;;;20.52;14.52;;;-5.00;99.90;;;;;;5053881;28;20206;-57
2023/12/04 01:27:47;;;;;;;24.75;14.27;;;-5.00;99.90;;;;;;5053436;28;20218;-58
2023/12/04 01:30:14;;;;;;;23.15;15.63;;;-5.00;99.90;;;;;;5053718;28;20293;-56
2023/12/04 01:32:42;;;;;;;22.98;15.30;;;-5.00;99.90;;;;;;5053709;28;20210;-58
2023/12/04 01:35:09;;;;;;;27.63;15.27;;;-5.00;99.90;;;;;;5054180;28;20297;-55
2023/12/04 01:37:38;;;;;;;22.88;14.70;;;-5.10;99.90;;;;;;5053877;28;20242;-54
2023/12/04 01:40:06;;;;;;;21.80;14.10;;;-5.10;99.90;;;;;;5054140;28;20206;-56
2023/12/04 01:42:33;;;;;;;21.20;14.02;;;-5.10;99.90;;;;;;5054109;28;20206;-55
2023/12/04 01:45:00;;;;;;;23.42;15.57;;;-5.10;99.90;;;;;;5053970;28;20695;-55
2023/12/04 01:47:27;;;;;;;24.58;16.02;;;-5.10;99.90;;;;;;5053554;28;20356;-58
2023/12/04 01:49:55;;;;;;;24.85;16.20;;;-5.10;99.90;;;;;;5054189;28;20297;-57
2023/12/04 01:52:23;;;;;;;23.27;14.13;;;-5.10;99.90;;;;;;5053695;28;20305;-56
2023/12/04 01:54:50;;;;;;;24.35;15.30;;;-5.10;99.90;;;;;;5053883;28;20298;-52
2023/12/04 01:57:17;;;;;;;27.05;16.05;;;-5.10;99.90;;;;;;5052918;28;20226;-56
2023/12/04 01:59:44;;;;;;;19.83;13.32;;;-5.20;99.90;;;;;;5054115;28;20301;-56
2023/12/04 02:02:11;;;;;;;25.13;16.52;;;-5.20;99.90;;;;;;5053549;28;20662;-57
2023/12/04 02:04:39;;;;;;;20.55;13.70;;;-5.20;99.90;;;;;;5053767;28;20206;-56
2023/12/04 02:07:09;;;;;;;23.70;15.40;;;-5.20;99.90;;;;;;5053377;28;20223;-57
2023/12/04 02:09:36;;;;;;;24.02;14.70;;;-5.20;99.90;;;;;;5053653;28;20206;-56
2023/12/04 02:12:03;;;;;;;23.65;14.65;;;-5.20;99.90;;;;;;5053470;28;20218;-56
2023/12/04 02:14:30;;;;;;;18.25;14.25;;;-5.20;99.90;;;;;;5053466;28;20207;-57
2023/12/04 02:16:59;;;;;;;18.95;14.13;;;-5.30;99.90;;;;;;5053310;28;20680;-55
2023/12/04 02:19:26;;;;;;;18.38;13.82;;;-5.30;99.90;;;;;;5053483;28;20217;-56
2023/12/04 02:21:52;;;;;;;20.33;13.85;;;-5.30;99.90;;;;;;5052111;28;20677;-56
2023/12/04 02:24:20;;;;;;;21.42;15.70;;;-5.30;99.90;;;;;;5053133;28;20219;-57
2023/12/04 02:26:52;;;;;;;24.00;14.52;;;-5.30;99.90;;;;;;5052978;28;20218;-57
2023/12/04 02:29:27;;;;;;;24.10;14.98;;;-5.30;99.90;;;;;;5053200;28;20761;-54
2023/12/04 02:31:56;;;;;;;23.13;15.68;;;-5.30;99.90;;;;;;5053126;28;20202;-56
2023/12/04 02:34:24;;;;;;;21.75;12.10;;;-5.30;99.90;;;;;;5052885;28;20214;-57
2023/12/04 02:36:52;;;;;;;19.15;12.77;;;-5.30;99.90;;;;;;5052884;28;20313;-54
2023/12/04 02:39:21;;;;;;;25.45;15.27;;;-5.30;99.90;;;;;;5052809;28;20202;-58
2023/12/04 02:41:49;;;;;;;23.27;14.18;;;-5.20;99.90;;;;;;5052645;28;20297;-58
2023/12/04 02:44:16;;;;;;;25.67;15.70;;;-5.20;99.90;;;;;;5052308;28;20294;-55
2023/12/04 02:46:42;;;;;;;19.75;14.48;;;-5.20;99.90;;;;;;5052259;28;20237;-56
2023/12/04 02:49:09;;;;;;;21.67;12.38;;;-5.20;99.90;;;;;;5052511;28;20301;-58
2023/12/04 02:51:36;;;;;;;18.65;14.98;;;-5.20;99.90;;;;;;5052606;28;20207;-55
2023/12/04 02:54:03;;;;;;;17.65;15.77;;;-5.10;99.90;;;;;;5052927;28;20206;-56
2023/12/04 02:56:31;;;;;;;23.55;14.85;;;-5.10;99.90;;;;;;5052283;28;20313;-55
2023/12/04 02:58:58;;;;;;;20.92;14.77;;;-5.10;99.90;;;;;;5052381;28;20213;-56
2023/12/04 03:01:25;;;;;;;21.52;13.82;;;-5.10;99.90;;;;;;5052298;28;20680;-58
2023/12/04 03:03:52;;;;;;;20.85;14.98;;;-5.00;99.90;;;;;;5052828;28;20232;-57
2023/12/04 03:06:18;;;;;;;21.48;14.00;;;-5.00;99.90;;;;;;5051942;28;20742;-57
2023/12/04 03:08:45;;;;;;;20.58;14.35;;;-5.00;99.90;;;;;;5052299;28;20206;-55
2023/12/04 03:11:12;;;;;;;18.50;14.60;;;-4.90;99.90;;;;;;5052445;28;20854;-54
2023/12/04 03:13:40;;;;;;;20.95;13.95;;;-4.90;99.90;;;;;;5052514;28;20293;-56
2023/12/04 03:16:15;;;;;;;16.85;13.32;;;-4.90;99.90;;;;;;5051935;28;20226;-58
2023/12/04 03:18:42;;;;;;;19.90;13.35;;;-4.90;99.90;;;;;;5052097;28;20209;-54
2023/12/04 03:21:09;;;;;;;19.30;14.50;;;-4.90;99.90;;;;;;5052373;28;20202;-56
2023/12/04 03:23:35;;;;;;;24.50;14.25;;;-4.80;99.90;;;;;;5051997;28;20202;-56
2023/12/04 03:26:02;;;;;;;22.55;16.38;;;-4.80;99.90;;;;;;5051943;28;20248;-56
2023/12/04 03:28:29;;;;;;;19.65;14.50;;;-4.80;99.90;;;;;;5051941;28;20302;-56
2023/12/04 03:30:58;;;;;;;21.33;15.90;;;-4.70;99.90;;;;;;5051848;28;20208;-58
2023/12/04 03:33:24;;;;;;;20.45;15.13;;;-4.70;99.90;;;;;;5052005;28;20313;-57
2023/12/04 03:35:51;;;;;;;26.10;19.92;;;-4.70;99.90;;;;;;5051950;28;20233;-57
2023/12/04 03:38:18;;;;;;;18.92;16.20;;;-4.70;99.90;;;;;;5051516;28;20226;-55
2023/12/04 03:40:45;;;;;;;28.10;16.98;;;-4.70;99.90;;;;;;5051730;28;20202;-56
2023/12/04 03:43:12;;;;;;;21.52;14.40;;;-4.60;99.90;;;;;;5051893;28;20209;-56
2023/12/04 03:45:38;;;;;;;19.17;14.52;;;-4.60;99.90;;;;;;5051843;28;20206;-56
2023/12/04 03:48:07;;;;;;;20.20;15.80;;;-4.60;99.90;;;;;;5051913;28;20213;-57
2023/12/04 03:50:34;;;;;;;20.83;14.05;;;-4.50;99.90;;;;;;5051893;28;20206;-57
2023/12/04 03:53:00;;;;;;;22.02;16.25;;;-4.50;99.90;;;;;;5051940;28;20305;-56
2023/12/04 03:55:27;;;;;;;23.38;13.85;;;-4.50;99.90;;;;;;5053048;28;20297;-56
2023/12/04 03:57:54;;;;;;;23.48;15.82;;;-4.40;99.90;;;;;;5055301;28;20226;-57
2023/12/04 04:00:22;;;;;;;19.38;14.10;;;-4.40;99.90;;;;;;5055552;28;20210;-57
2023/12/04 04:02:49;;;;;;;17.08;14.85;;;-4.40;99.90;;;;;;5055807;28;20252;-57
2023/12/04 04:05:18;;;;;;;18.90;14.50;;;-4.30;99.90;;;;;;5055803;28;20210;-56
2023/12/04 04:07:44;;;;;;;24.20;14.98;;;-4.30;99.90;;;;;;5055422;28;20228;-57
2023/12/04 04:10:11;;;;;;;24.83;15.30;;;-4.30;99.90;;;;;;5055754;28;20216;-54
2023/12/04 04:12:38;;;;;;;25.23;16.55;;;-4.30;99.90;;;;;;5055388;28;20206;-58
2023/12/04 04:15:06;;;;;;;23.95;15.18;;;-4.20;99.90;;;;;;5055289;28;20206;-58
2023/12/04 04:17:33;;;;;;;21.98;15.00;;;-4.20;99.90;;;;;;5054976;28;20245;-56
2023/12/04 04:20:00;;;;;;;23.98;16.20;;;-4.20;99.90;;;;;;5055430;28;20210;-55
2023/12/04 04:22:28;;;;;;;27.13;16.77;;;-4.10;99.90;;;;;;5055374;28;20198;-54
2023/12/04 04:24:57;;;;;;;25.75;16.70;;;-4.10;99.90;;;;;;5055301;28;20213;-55
2023/12/04 04:27:23;;;;;;;23.20;15.93;;;-4.00;99.90;;;;;;5054391;28;20219;-56
2023/12/04 04:29:50;;;;;;;26.02;15.82;;;-4.00;99.90;;;;;;5055055;28;20669;-56
2023/12/04 04:32:17;;;;;;;20.52;15.88;;;-4.00;99.90;;;;;;5055012;28;20213;-57
2023/12/04 04:34:44;;;;;;;27.15;17.88;;;-4.00;99.90;;;;;;5054863;28;20206;-55
2023/12/04 04:37:10;;;;;;;30.00;18.20;;;-3.90;99.90;;;;;;5054552;28;20280;-56
2023/12/04 04:39:41;;;;;;;19.98;15.68;;;-3.90;99.90;;;;;;5054457;28;20203;-57
2023/12/04 04:42:08;;;;;;;26.55;18.90;;;-3.80;99.90;;;;;;5054507;28;20207;-58
2023/12/04 04:44:34;;;;;;;25.58;17.52;;;-3.80;99.90;;;;;;5054936;28;20583;-57
2023/12/04 04:47:02;;;;;;;23.02;17.83;;;-3.80;99.90;;;;;;5054222;28;20626;-57
2023/12/04 04:49:29;;;;;;;22.83;16.15;;;-3.70;99.90;;;;;;5054589;28;20213;-57
2023/12/04 04:51:55;;;;;;;24.38;16.38;;;-3.70;99.90;;;;;;5054489;28;20206;-57
2023/12/04 04:54:22;;;;;;;19.90;16.92;;;-3.70;99.90;;;;;;5054278;28;20220;-55
2023/12/04 04:56:51;;;;;;;21.23;14.75;;;-3.70;99.90;;;;;;5054161;28;20245;-55
2023/12/04 04:59:17;;;;;;;23.35;17.88;;;-3.60;99.90;;;;;;5053441;28;20210;-52
2023/12/04 05:01:44;;;;;;;26.20;17.00;;;-3.70;99.90;;;;;;5054539;28;20206;-57
2023/12/04 05:04:11;;;;;;;21.55;15.88;;;-3.60;99.90;;;;;;5054203;28;20685;-56
2023/12/04 05:06:38;;;;;;;17.98;16.17;;;-3.60;99.90;;;;;;5053627;28;20233;-59
2023/12/04 05:09:05;;;;;;;31.02;17.80;;;-3.60;99.90;;;;;;5054160;28;20208;-54
2023/12/04 05:11:31;;;;;;;21.77;17.25;;;-3.60;99.90;;;;;;5054447;28;20208;-56
2023/12/04 05:14:00;;;;;;;23.17;18.15;;;-3.60;99.90;;;;;;5054315;28;20293;-57
2023/12/04 05:16:26;;;;;;;21.80;15.30;;;-3.60;99.90;;;;;;5053794;28;20716;-57
2023/12/04 05:18:53;;;;;;;26.10;14.82;;;-3.60;99.90;;;;;;5054144;28;20236;-58
2023/12/04 05:21:20;;;;;;;22.70;15.98;;;-3.60;99.90;;;;;;5053443;28;20210;-54
2023/12/04 05:23:47;;;;;;;23.83;17.00;;;-3.60;99.90;;;;;;5053708;28;20314;-56
2023/12/04 05:26:14;;;;;;;18.52;15.32;;;-3.50;99.90;;;;;;5053907;28;20241;-58
2023/12/04 05:28:41;;;;;;;28.15;18.75;;;-3.50;99.90;;;;;;5053657;28;20320;-58
2023/12/04 05:31:09;;;;;;;19.23;15.93;;;-3.50;99.90;;;;;;5053572;28;20612;-58
2023/12/04 05:33:36;;;;;;;20.52;15.75;;;-3.50;99.90;;;;;;5052312;28;20227;-58
2023/12/04 05:36:03;;;;;;;19.52;16.83;;;-3.50;99.90;;;;;;5052963;28;20222;-55
2023/12/04 05:38:30;;;;;;;21.02;17.38;;;-3.50;99.90;;;;;;5052836;28;20329;-55
2023/12/04 05:40:56;;;;;;;21.67;16.75;;;-3.50;99.90;;;;;;5053414;28;20214;-57
2023/12/04 05:43:23;;;;;;;23.13;17.88;;;-3.50;99.90;;;;;;5053312;28;20210;-56
2023/12/04 05:45:50;;;;;;;19.75;14.70;;;-3.50;99.90;;;;;;5052847;28;20275;-57
2023/12/04 05:48:18;;;;;;;24.02;15.73;;;-3.50;99.90;;;;;;5052729;28;20241;-59
2023/12/04 05:50:45;;;;;;;22.45;15.35;;;-3.50;99.90;;;;;;5053231;28;20217;-58
2023/12/04 05:53:12;;;;;;;24.52;16.13;;;-3.50;99.90;;;;;;5053164;28;20213;-58
2023/12/04 05:55:39;;;;;;;24.45;16.13;;;-3.50;99.90;;;;;;5052888;28;20211;-59
2023/12/04 05:58:06;;;;;;;23.08;16.00;;;-3.50;99.90;;;;;;5052645;28;20693;-57
2023/12/04 06:00:33;;;;;;;19.27;13.45;;;-3.60;99.90;;;;;;5052871;28;20203;-53
2023/12/04 06:02:59;;;;;;;22.95;17.25;;;-3.60;99.90;;;;;;5052857;28;20715;-57
2023/12/04 06:05:28;;;;;;;22.17;15.95;;;-3.60;99.90;;;;;;5053018;28;20216;-56
2023/12/04 06:07:55;;;;;;;21.83;15.90;;;-3.60;99.90;;;;;;5052668;28;20226;-59
2023/12/04 06:10:21;;;;;;;23.73;15.70;;;-3.60;99.90;;;;;;5052755;28;20252;-59
2023/12/04 06:12:48;;;;;;;22.98;15.43;;;-3.60;99.90;;;;;;5052724;28;20209;-58
2023/12/04 06:15:15;;;;;;;23.38;15.65;;;-3.60;99.90;;;;;;5052392;28;20229;-59
2023/12/04 06:17:42;;;;;;;21.20;16.80;;;-3.60;99.90;;;;;;5052578;28;20226;-54
2023/12/04 06:20:11;;;;;;;22.52;17.75;;;-3.60;99.90;;;;;;5051885;28;20583;-57
2023/12/04 06:22:40;;;;;;;25.88;17.45;;;-3.60;99.90;;;;;;5052475;28;20207;-55
2023/12/04 06:25:08;;;;;;;21.83;17.90;;;-3.60;99.90;;;;;;5052402;28;20209;-57
2023/12/04 06:27:35;;;;;;;27.38;17.15;;;-3.60;99.90;;;;;;5052228;28;20309;-57
2023/12/04 06:30:03;;;;;;;19.23;15.57;;;-3.60;99.90;;;;;;5052408;28;20269;-56
2023/12/04 06:32:30;;;;;;;18.02;14.68;;;-3.70;99.90;;;;;;5052648;28;20213;-56
2023/12/04 06:34:58;;;;;;;21.95;15.18;;;-3.70;99.90;;;;;;5052607;28;20293;-57
2023/12/04 06:37:25;;;;;;;20.98;16.08;;;-3.70;99.90;;;;;;5051911;28;20730;-58
2023/12/04 06:39:54;;;;;;;21.85;14.05;;;-3.70;99.90;;;;;;5074509;22;20320;-59
2023/12/04 06:42:21;;;;;;;21.95;14.43;;;-3.70;99.90;;;;;;5051736;28;20554;-60
2023/12/04 06:44:49;;;;;;;22.17;17.33;;;-3.70;99.90;;;;;;5051825;28;20261;-59
2023/12/04 06:47:21;;;;;;;22.63;16.90;;;-3.70;99.90;;;;;;5051313;28;20285;-58
2023/12/04 06:49:48;;;;;;;24.70;17.00;;;-3.70;99.90;;;;;;5051950;28;20223;-59
2023/12/04 06:52:15;;;;;;;21.02;14.65;;;-3.70;99.90;;;;;;5051951;28;20205;-58
2023/12/04 06:54:41;;;;;;;19.05;15.48;;;-3.80;99.90;;;;;;5051762;28;20218;-58
2023/12/04 06:57:10;;;;;;;17.15;14.98;;;-3.80;99.90;;;;;;5051494;28;20214;-55
2023/12/04 06:59:36;;;;;;;23.77;16.67;;;-3.80;99.90;;;;;;5051478;28;20320;-58
2023/12/04 07:02:05;;;;;;;21.45;16.05;;;-3.80;99.90;;;;;;5051259;28;20697;-57
2023/12/04 07:04:32;;;;;;;28.27;17.92;;;-3.80;99.90;;;;;;5051851;28;20596;-59
2023/12/04 07:07:04;;;;;;;22.40;15.77;;;-3.80;99.90;;;;;;5051417;28;20684;-58
2023/12/04 07:09:31;;;;;;;18.58;15.15;;;-3.80;99.90;;;;;;5051560;28;20288;-56
2023/12/04 07:11:58;;;;;;;22.35;16.33;;;-3.80;99.90;;;;;;5051392;28;20804;-57
2023/12/04 07:14:26;;;;;;;20.33;14.55;;;-3.80;99.90;;;;;;5051156;28;20300;-58
2023/12/04 07:16:53;;;;;;;18.55;14.82;;;-3.80;99.90;;;;;;5051238;28;20211;-58
2023/12/04 07:19:20;;;;;;;27.08;19.35;;;-3.80;99.90;;;;;;5051053;28;20606;-54
2023/12/04 07:21:49;;;;;;;20.63;16.48;;;-3.80;99.90;;;;;;5051207;28;20642;-56
2023/12/04 07:24:16;;;;;;;25.33;15.60;;;-3.80;99.90;;;;;;5050958;28;20301;-59
2023/12/04 07:26:43;;;;;;;22.20;16.42;;;-3.80;99.90;;;;;;5050527;28;20252;-57
2023/12/04 07:29:10;;;;;;;20.92;14.43;;;-3.80;99.90;;;;;;5049619;28;20234;-57
2023/12/04 07:31:38;;;;;;;22.08;16.88;;;-3.80;99.90;;;;;;5050231;28;20300;-58
2023/12/04 07:34:05;;;;;;;25.08;16.13;;;-3.70;99.90;;;;;;5051112;28;20206;-57
2023/12/04 07:36:32;;;;;;;19.35;14.90;;;-3.70;99.90;;;;;;5050982;28;20289;-59
2023/12/04 07:38:59;;;;;;;18.73;14.57;;;-3.70;99.90;;;;;;5050538;28;20220;-56
2023/12/04 07:41:25;;;;;;;19.20;14.70;;;-3.70;99.90;;;;;;5051021;28;20210;-58
2023/12/04 07:43:52;;;;;;;22.77;15.40;;;-3.70;99.90;;;;;;5051336;28;20213;-54
2023/12/04 07:46:19;;;;;;;23.40;15.38;;;-3.60;99.90;;;;;;5051064;28;20650;-58
2023/12/04 07:48:47;;;;;;;24.75;16.60;;;-3.60;99.90;;;;;;5050873;28;20728;-57
2023/12/04 07:51:14;;;;;;;18.90;14.85;;;-3.60;99.90;;;;;;5050969;28;20755;-58
2023/12/04 07:53:41;;;;;;;23.65;16.90;;;-3.50;99.90;;;;;;5050928;28;20206;-59
2023/12/04 07:56:09;;;;;;;22.77;16.77;;;-3.50;99.90;;;;;;5050723;28;20305;-58
2023/12/04 07:58:36;;;;;;;20.38;16.65;;;-3.40;99.90;;;;;;5050806;28;20692;-59
2023/12/04 08:01:03;;;;;;;24.60;16.10;;;-3.40;99.90;;;;;;5050932;28;20313;-58
2023/12/04 08:03:51;;;;;;;23.08;17.92;;;-3.30;99.90;;;;;;5051004;28;20755;-60
2023/12/04 08:06:19;;;;;;;21.02;16.15;;;-3.30;99.90;;;;;;4989075;28;20208;-59
2023/12/04 08:08:46;;;;;;;20.98;14.43;;;-3.20;99.90;;;;;;4988922;28;20236;-60
2023/12/04 08:11:13;;;;;;;25.00;17.75;;;-3.20;99.90;;;;;;4989267;28;20321;-60
2023/12/04 08:13:40;;;;;;;16.17;13.90;;;-3.10;99.90;;;;;;4989146;28;20212;-61
2023/12/04 08:16:14;;;;;;;20.83;14.50;;;-3.00;99.90;;;;;;4989265;28;20299;-60
2023/12/04 08:18:41;;;;;;;16.55;13.88;;;-2.90;99.90;;;;;;4988996;28;20363;-60
2023/12/04 08:21:10;;;;;;;18.73;13.90;;;-2.80;99.90;;;;;;4989034;28;20235;-60
2023/12/04 08:23:36;;;;;;;18.02;14.98;;;-2.80;99.90;;;;;;4988692;28;20251;-60
2023/12/04 08:26:04;;;;;;;21.88;16.30;;;-2.70;99.90;;;;;;4988196;28;20287;-60
2023/12/04 08:28:30;;;;;;;18.42;14.85;;;-2.60;99.90;;;;;;4988690;28;20207;-60
2023/12/04 08:30:57;;;;;;;16.65;13.35;;;-2.60;99.90;;;;;;4990172;28;20323;-59
2023/12/04 08:33:24;;;;;;;19.85;15.80;;;-2.50;99.90;;;;;;5000304;28;20204;-61
2023/12/04 08:35:51;;;;;;;19.95;13.15;;;-2.40;99.90;;;;;;4998358;28;20595;-60
2023/12/04 08:38:19;;;;;;;19.58;13.48;;;-2.40;99.90;;;;;;4999333;28;20326;-60
2023/12/04 08:40:46;;;;;;;18.10;13.55;;;-2.30;99.90;;;;;;4994394;28;20255;-60
2023/12/04 08:43:13;;;;;;;17.98;12.27;;;-2.20;99.90;;;;;;5011636;28;20289;-59
2023/12/04 08:45:40;;;;;;;15.82;13.23;;;-2.20;99.90;;;;;;5053258;28;20285;-60
2023/12/04 08:48:06;;;;;;;20.13;14.27;;;-2.10;99.90;;;;;;5053494;28;20298;-60
2023/12/04 08:50:33;;;;;;;22.25;13.98;;;-2.00;99.90;;;;;;5052666;28;20230;-60
2023/12/04 08:53:01;;;;;;;19.08;13.00;;;-2.00;99.90;;;;;;5053861;28;20313;-60
2023/12/04 08:55:29;;;;;;;18.42;13.48;;;-1.90;99.90;;;;;;5053099;28;20284;-60
2023/12/04 08:57:56;;;;;;;17.30;14.05;;;-1.80;99.90;;;;;;5053419;28;20209;-60
2023/12/04 09:00:23;;;;;;;19.20;13.32;;;-1.80;99.90;;;;;;5050829;28;20313;-60
2023/12/04 09:02:49;;;;;;;18.95;13.07;;;-1.70;99.90;;;;;;5053026;28;20297;-60
2023/12/04 09:05:16;;;;;;;13.30;11.65;;;-1.70;99.90;;;;;;5051832;28;20284;-59
2023/12/04 09:07:43;;;;;;;17.45;13.02;;;-1.60;99.90;;;;;;5052991;28;20199;-60
2023/12/04 09:10:10;;;;;;;18.98;13.95;;;-1.60;99.90;;;;;;5052235;28;20226;-60
2023/12/04 09:12:38;;;;;;;17.35;12.65;;;-1.50;99.90;;;;;;5053177;28;20226;-60
2023/12/04 09:15:06;;;;;;;15.80;12.77;;;-1.50;99.90;;;;;;5052093;28;20293;-60
2023/12/04 09:17:33;;;;;;;15.23;12.25;;;-1.40;99.90;;;;;;5052656;28;20237;-61
2023/12/04 09:20:00;;;;;;;20.15;12.90;;;-1.40;99.90;;;;;;5052391;28;20256;-61
2023/12/04 09:22:27;;;;;;;20.20;15.40;;;-1.30;99.90;;;;;;5052550;28;20653;-60
2023/12/04 09:24:54;;;;;;;17.58;13.23;;;-1.20;99.90;;;;;;5051702;28;20298;-61
2023/12/04 09:27:21;;;;;;;16.13;11.20;;;-1.20;99.90;;;;;;5051999;28;20206;-60
2023/12/04 09:29:49;;;;;;;16.60;13.27;;;-1.20;99.90;;;;;;5051519;28;20214;-61
2023/12/04 09:32:16;;;;;;;17.38;13.57;;;-1.10;99.90;;;;;;5052827;28;20202;-61
2023/12/04 09:34:43;;;;;;;19.55;14.57;;;-1.10;99.90;;;;;;5051720;28;20680;-59
2023/12/04 09:37:10;;;;;;;19.17;14.32;;;-1.10;99.90;;;;;;5052024;28;20208;-60
2023/12/04 09:39:36;;;;;;;14.65;12.38;;;-1.00;99.90;;;;;;5052061;28;20321;-59
2023/12/04 09:42:04;;;;;;;16.88;12.73;;;-1.00;99.90;;;;;;5052765;28;20206;-59
2023/12/04 09:44:31;;;;;;;16.65;12.48;;;-1.00;99.90;;;;;;5052499;28;20240;-57
2023/12/04 09:47:02;;;;;;;18.38;12.60;;;-0.90;99.90;;;;;;5052141;28;20207;-60
2023/12/04 09:49:29;;;;;;;14.18;12.32;;;-0.90;99.90;;;;;;5052529;28;20234;-60
2023/12/04 09:51:59;;;;;;;20.88;13.07;;;-0.90;99.90;;;;;;5052325;28;20206;-60
2023/12/04 09:54:26;;;;;;;15.57;11.48;;;-0.80;99.90;;;;;;5051771;28;20673;-58
2023/12/04 09:56:53;;;;;;;18.35;11.85;;;-0.80;99.90;;;;;;5052026;28;20210;-59
2023/12/04 09:59:24;;;;;;;14.43;11.25;;;-0.70;99.90;;;;;;5052363;28;20226;-58
2023/12/04 10:01:52;;;;;;;18.23;14.25;;;-0.70;99.90;;;;;;5052452;28;20210;-60
2023/12/04 10:04:21;;;;;;;15.27;12.60;;;-0.60;99.90;;;;;;5052185;28;20202;-61
2023/12/04 10:06:50;;;;;;;14.65;11.18;;;-0.50;99.90;;;;;;5051729;28;20692;-60
2023/12/04 10:09:18;;;;;;;15.48;12.23;;;-0.50;99.90;;;;;;5051579;28;20227;-60
2023/12/04 10:11:45;;;;;;;12.30;10.98;;;-0.40;99.90;;;;;;5052371;28;20210;-60
2023/12/04 10:14:17;;;;;;;14.10;11.05;;;-0.30;99.90;;;;;;5052093;28;20206;-57
2023/12/04 10:16:44;;;;;;;14.50;11.82;;;-0.30;99.90;;;;;;5051811;28;20206;-60
2023/12/04 10:19:22;;;;;;;13.77;10.35;;;-0.30;99.90;;;;;;5051683;28;20222;-59
2023/12/04 10:21:51;;;;;;;13.63;10.85;;;-0.20;99.90;;;;;;5050936;28;20601;-60
2023/12/04 10:24:32;;;;;;;14.38;11.85;;;-0.10;99.90;;;;;;5051723;28;20198;-59
2023/12/04 10:27:00;;;;;;;14.77;10.32;;;-0.10;99.90;;;;;;5051561;28;20241;-60
2023/12/04 10:29:29;;;;;;;15.70;11.32;;;0.00;99.90;;;;;;5051568;28;20227;-60
2023/12/04 10:31:59;;;;;;;11.20;9.32;;;0.10;99.90;;;;;;5051787;28;20298;-59
2023/12/04 10:34:28;;;;;;;13.90;10.88;;;0.10;99.90;;;;;;5051862;28;20230;-60
2023/12/04 10:36:58;;;;;;;12.23;9.77;;;0.10;99.90;;;;;;5051726;28;20234;-58
2023/12/04 10:39:28;;;;;;;12.18;10.30;;;0.10;99.90;;;;;;5051412;28;20237;-61
2023/12/04 10:42:02;;;;;;;15.25;9.30;;;0.10;99.90;;;;;;5051936;28;20202;-57
2023/12/04 10:44:31;;;;;;;11.20;9.80;;;0.10;99.90;;;;;;5051678;28;20252;-59
2023/12/04 10:47:00;;;;;;;11.00;9.52;;;0.20;99.90;;;;;;5051253;28;20231;-60
2023/12/04 10:49:29;;;;;;;12.23;10.75;;;0.20;99.90;;;;;;5051427;28;20758;-58
2023/12/04 10:51:59;;;;;;;13.13;9.90;;;0.20;99.90;;;;;;5051750;28;20210;-60
2023/12/04 10:54:26;;;;;;;12.52;10.02;;;0.20;99.90;;;;;;5051542;28;20206;-60
2023/12/04 10:56:54;;;;;;;12.73;11.45;;;0.20;99.90;;;;;;5051471;28;20585;-58
2023/12/04 10:59:28;;;;;;;12.90;11.43;;;0.20;99.90;;;;;;5051091;28;20230;-60
2023/12/04 11:01:56;;;;;;;11.65;9.15;;;0.20;99.90;;;;;;5051573;28;20209;-60
2023/12/04 11:04:26;;;;;;;15.02;10.40;;;0.20;99.90;;;;;;5051426;28;20561;-60
2023/12/04 11:06:56;;;;;;;11.30;9.98;;;0.20;99.90;;;;;;5051083;28;20315;-57
2023/12/04 11:09:26;;;;;;;11.48;9.43;;;0.10;99.90;;;;;;5051228;28;20219;-60
2023/12/04 11:12:00;;;;;;;14.90;10.30;;;0.10;99.90;;;;;;5051183;28;20633;-60
2023/12/04 11:14:43;;;;;;;11.20;9.23;;;0.10;99.90;;;;;;5051426;28;20242;-60
2023/12/04 11:17:14;;;;;;;14.50;12.43;;;0.10;99.90;;;;;;5051233;28;20367;-60
2023/12/04 11:19:52;;;;;;;14.00;10.00;;;0.10;99.90;;;;;;5051041;28;20237;-59
2023/12/04 11:22:22;;;;;;;11.30;10.10;;;0.00;99.90;;;;;;5050991;28;20304;-60
2023/12/04 11:24:49;;;;;;;13.40;9.38;;;0.00;99.90;;;;;;5051115;28;20211;-60
2023/12/04 11:27:18;;;;;;;10.88;9.48;;;0.00;99.90;;;;;;5050975;28;20638;-57
2023/12/04 11:29:46;;;;;;;13.02;9.45;;;0.00;99.90;;;;;;5050674;28;20249;-59
2023/12/04 11:32:16;;;;;;;11.50;10.25;;;0.00;99.90;;;;;;5050972;28;20293;-59
2023/12/04 11:34:49;;;;;;;14.43;10.80;;;0.00;99.90;;;;;;5051199;28;20200;-60
2023/12/04 11:37:16;;;;;;;10.23;9.00;;;0.00;99.90;;;;;;5051122;28;20214;-59
2023/12/04 11:39:48;;;;;;;11.93;9.55;;;0.00;99.90;;;;;;5050755;28;20321;-62
2023/12/04 11:42:14;;;;;;;11.90;9.20;;;0.00;99.90;;;;;;5051074;28;20632;-58
2023/12/04 11:44:42;;;;;;;11.13;9.73;;;0.10;99.90;;;;;;5047165;28;20202;-60
2023/12/04 11:47:09;;;;;;;12.90;11.10;;;0.10;99.90;;;;;;5049804;28;20751;-59
2023/12/04 11:49:36;;;;;;;11.15;8.52;;;0.10;99.90;;;;;;5050253;28;20318;-60
2023/12/04 11:52:05;;;;;;;13.10;10.18;;;0.20;99.90;;;;;;5050649;28;20234;-59
2023/12/04 11:55:00;;;;;;;17.45;10.38;;;0.20;99.90;;;;;;5050356;28;20285;-60
2023/12/04 11:57:29;;;;;;;12.57;10.77;;;0.30;99.90;;;;;;5035516;28;20293;-60
2023/12/04 12:00:11;;;;;;;12.95;9.93;;;0.30;99.90;;;;;;5049641;28;20242;-60
2023/12/04 12:02:39;;;;;;;10.70;9.70;;;0.40;99.90;;;;;;5049993;28;20212;-59
2023/12/04 12:05:07;;;;;;;15.68;10.10;;;0.40;99.90;;;;;;5050118;28;20587;-58
2023/12/04 12:07:34;;;;;;;10.45;7.93;;;0.40;99.90;;;;;;5049826;28;20207;-60
2023/12/04 12:10:03;;;;;;;12.93;7.93;;;0.40;99.90;;;;;;5050012;28;20218;-60
2023/12/04 12:12:31;;;;;;;10.13;8.98;;;0.40;99.90;;;;;;5048921;28;20305;-60
2023/12/04 12:14:58;;;;;;;11.60;8.63;;;0.40;99.90;;;;;;5049976;28;20317;-59
2023/12/04 12:17:25;;;;;;;11.77;10.07;;;0.40;99.90;;;;;;5050870;28;20237;-60
2023/12/04 12:19:52;;;;;;;12.68;10.40;;;0.50;99.90;;;;;;5053858;28;20253;-58
2023/12/04 12:22:19;;;;;;;14.20;9.43;;;0.50;99.90;;;;;;5053801;28;20699;-58
2023/12/04 12:24:46;;;;;;;11.90;9.27;;;0.50;99.90;;;;;;5053685;28;20230;-58
2023/12/04 12:27:15;;;;;;;13.50;10.52;;;0.50;99.90;;;;;;5034991;28;20908;-58
2023/12/04 12:29:41;;;;;;;10.95;8.57;;;0.50;99.90;;;;;;5046641;28;21540;-59
2023/12/04 12:32:08;;;;;;;15.40;9.85;;;0.50;99.90;;;;;;5052387;28;20207;-60
2023/12/04 12:34:36;;;;;;;10.85;8.27;;;0.50;99.90;;;;;;5053303;28;20875;-58